sensor_id;sensor_type;location;lat;lon;timestamp;P1;durP1;ratioP1;P2;durP2;ratioP2
1428;SDS011;708;51.442;7.016;2022-10-17T00:01:36;8.00;;;7.25;;
1428;SDS011;708;51.442;7.016;2022-10-17T00:04:03;8.45;;;6.55;;
1428;SDS011;708;51.442;7.016;2022-10-17T00:06:30;7.63;;;6.93;;
1428;SDS011;708;51.442;7.016;2022-10-17T00:08:57;7.65;;;6.85;;
1428;SDS011;708;51.442;7.016;2022-10-17T00:11:23;11.98;;;6.65;;
1428;SDS011;708;51.442;7.016;2022-10-17T00:13:54;6.93;;;6.25;;
1428;SDS011;708;51.442;7.016;2022-10-17T00:16:24;7.35;;;6.65;;
1428;SDS011;708;51.442;7.016;2022-10-17T00:18:52;7.47;;;6.10;;
1428;SDS011;708;51.442;7.016;2022-10-17T00:21:20;9.40;;;7.18;;
1428;SDS011;708;51.442;7.016;2022-10-17T00:23:47;8.02;;;6.45;;
1428;SDS011;708;51.442;7.016;2022-10-17T00:26:15;7.88;;;7.10;;
1428;SDS011;708;51.442;7.016;2022-10-17T00:28:44;7.43;;;5.75;;
1428;SDS011;708;51.442;7.016;2022-10-17T00:31:12;7.65;;;6.95;;
1428;SDS011;708;51.442;7.016;2022-10-17T00:33:40;9.20;;;6.22;;
1428;SDS011;708;51.442;7.016;2022-10-17T00:36:08;7.90;;;6.10;;
1428;SDS011;708;51.442;7.016;2022-10-17T00:38:37;6.28;;;5.78;;
1428;SDS011;708;51.442;7.016;2022-10-17T00:41:04;7.90;;;6.20;;
1428;SDS011;708;51.442;7.016;2022-10-17T00:46:16;10.43;;;8.13;;
1428;SDS011;708;51.442;7.016;2022-10-17T00:48:42;7.07;;;6.38;;
1428;SDS011;708;51.442;7.016;2022-10-17T00:51:10;7.07;;;6.45;;
1428;SDS011;708;51.442;7.016;2022-10-17T00:53:37;7.38;;;6.25;;
1428;SDS011;708;51.442;7.016;2022-10-17T00:56:05;7.25;;;5.93;;
1428;SDS011;708;51.442;7.016;2022-10-17T00:58:32;7.95;;;7.15;;
1428;SDS011;708;51.442;7.016;2022-10-17T01:00:59;8.50;;;6.63;;
1428;SDS011;708;51.442;7.016;2022-10-17T01:03:29;7.28;;;5.95;;
1428;SDS011;708;51.442;7.016;2022-10-17T01:05:56;8.98;;;5.97;;
1428;SDS011;708;51.442;7.016;2022-10-17T01:08:22;6.75;;;6.05;;
1428;SDS011;708;51.442;7.016;2022-10-17T01:10:52;7.78;;;6.35;;
1428;SDS011;708;51.442;7.016;2022-10-17T01:13:27;11.13;;;6.70;;
1428;SDS011;708;51.442;7.016;2022-10-17T01:16:01;7.35;;;6.63;;
1428;SDS011;708;51.442;7.016;2022-10-17T01:18:45;12.93;;;6.40;;
1428;SDS011;708;51.442;7.016;2022-10-17T01:21:23;7.22;;;6.55;;
1428;SDS011;708;51.442;7.016;2022-10-17T01:24:21;7.53;;;5.55;;
1428;SDS011;708;51.442;7.016;2022-10-17T01:27:29;8.15;;;6.00;;
1428;SDS011;708;51.442;7.016;2022-10-17T01:33:32;7.45;;;5.90;;
1428;SDS011;708;51.442;7.016;2022-10-17T01:36:09;7.70;;;6.00;;
1428;SDS011;708;51.442;7.016;2022-10-17T01:38:42;7.25;;;5.88;;
1428;SDS011;708;51.442;7.016;2022-10-17T01:41:13;7.50;;;5.97;;
1428;SDS011;708;51.442;7.016;2022-10-17T01:43:50;5.72;;;5.13;;
1428;SDS011;708;51.442;7.016;2022-10-17T01:46:28;6.78;;;6.07;;
1428;SDS011;708;51.442;7.016;2022-10-17T01:48:59;6.43;;;5.82;;
1428;SDS011;708;51.442;7.016;2022-10-17T01:51:27;6.80;;;6.10;;
1428;SDS011;708;51.442;7.016;2022-10-17T01:53:59;11.35;;;5.95;;
1428;SDS011;708;51.442;7.016;2022-10-17T01:56:29;7.05;;;6.15;;
1428;SDS011;708;51.442;7.016;2022-10-17T01:58:59;6.63;;;6.03;;
1428;SDS011;708;51.442;7.016;2022-10-17T02:01:31;6.50;;;5.90;;
1428;SDS011;708;51.442;7.016;2022-10-17T02:04:02;7.85;;;4.50;;
1428;SDS011;708;51.442;7.016;2022-10-17T02:06:33;4.63;;;4.13;;
1428;SDS011;708;51.442;7.016;2022-10-17T02:09:01;9.45;;;5.70;;
1428;SDS011;708;51.442;7.016;2022-10-17T02:11:46;10.48;;;6.50;;
1428;SDS011;708;51.442;7.016;2022-10-17T02:14:22;8.25;;;5.45;;
1428;SDS011;708;51.442;7.016;2022-10-17T02:16:59;6.35;;;5.20;;
1428;SDS011;708;51.442;7.016;2022-10-17T02:19:34;7.90;;;6.00;;
1428;SDS011;708;51.442;7.016;2022-10-17T02:22:16;7.28;;;6.22;;
1428;SDS011;708;51.442;7.016;2022-10-17T02:24:51;6.30;;;5.70;;
1428;SDS011;708;51.442;7.016;2022-10-17T02:27:29;8.30;;;5.18;;
1428;SDS011;708;51.442;7.016;2022-10-17T02:30:07;6.10;;;5.53;;
1428;SDS011;708;51.442;7.016;2022-10-17T02:32:39;9.23;;;6.63;;
1428;SDS011;708;51.442;7.016;2022-10-17T02:35:12;6.40;;;5.80;;
1428;SDS011;708;51.442;7.016;2022-10-17T02:37:42;7.50;;;5.75;;
1428;SDS011;708;51.442;7.016;2022-10-17T02:40:11;10.20;;;5.20;;
1428;SDS011;708;51.442;7.016;2022-10-17T02:42:41;7.35;;;5.50;;
1428;SDS011;708;51.442;7.016;2022-10-17T02:45:10;7.97;;;5.80;;
1428;SDS011;708;51.442;7.016;2022-10-17T02:47:42;6.65;;;6.05;;
1428;SDS011;708;51.442;7.016;2022-10-17T02:50:15;11.73;;;6.20;;
1428;SDS011;708;51.442;7.016;2022-10-17T02:52:44;6.40;;;5.75;;
1428;SDS011;708;51.442;7.016;2022-10-17T02:55:17;5.75;;;5.25;;
1428;SDS011;708;51.442;7.016;2022-10-17T02:57:47;6.63;;;6.03;;
1428;SDS011;708;51.442;7.016;2022-10-17T03:00:17;7.68;;;5.55;;
1428;SDS011;708;51.442;7.016;2022-10-17T03:02:47;6.75;;;6.00;;
1428;SDS011;708;51.442;7.016;2022-10-17T03:05:15;6.68;;;5.85;;
1428;SDS011;708;51.442;7.016;2022-10-17T03:07:44;6.72;;;5.55;;
1428;SDS011;708;51.442;7.016;2022-10-17T03:10:11;8.65;;;5.85;;
1428;SDS011;708;51.442;7.016;2022-10-17T03:12:38;6.68;;;5.97;;
1428;SDS011;708;51.442;7.016;2022-10-17T03:15:05;6.43;;;5.82;;
1428;SDS011;708;51.442;7.016;2022-10-17T03:17:33;6.28;;;5.68;;
1428;SDS011;708;51.442;7.016;2022-10-17T03:20:01;6.30;;;5.50;;
1428;SDS011;708;51.442;7.016;2022-10-17T03:22:28;6.30;;;5.70;;
1428;SDS011;708;51.442;7.016;2022-10-17T03:24:55;11.68;;;5.88;;
1428;SDS011;708;51.442;7.016;2022-10-17T03:27:21;7.30;;;5.88;;
1428;SDS011;708;51.442;7.016;2022-10-17T03:29:48;6.22;;;5.63;;
1428;SDS011;708;51.442;7.016;2022-10-17T03:32:15;7.65;;;5.65;;
1428;SDS011;708;51.442;7.016;2022-10-17T03:34:42;5.78;;;5.28;;
1428;SDS011;708;51.442;7.016;2022-10-17T03:37:10;6.07;;;5.47;;
1428;SDS011;708;51.442;7.016;2022-10-17T03:39:36;6.63;;;5.65;;
1428;SDS011;708;51.442;7.016;2022-10-17T03:42:03;8.82;;;5.20;;
1428;SDS011;708;51.442;7.016;2022-10-17T03:44:32;7.25;;;4.60;;
1428;SDS011;708;51.442;7.016;2022-10-17T03:46:58;7.45;;;4.25;;
1428;SDS011;708;51.442;7.016;2022-10-17T03:49:25;5.97;;;5.38;;
1428;SDS011;708;51.442;7.016;2022-10-17T03:51:52;7.72;;;5.03;;
1428;SDS011;708;51.442;7.016;2022-10-17T03:54:20;5.90;;;5.30;;
1428;SDS011;708;51.442;7.016;2022-10-17T03:56:47;6.43;;;4.88;;
1428;SDS011;708;51.442;7.016;2022-10-17T03:59:14;8.63;;;4.82;;
1428;SDS011;708;51.442;7.016;2022-10-17T04:01:41;11.18;;;5.22;;
1428;SDS011;708;51.442;7.016;2022-10-17T04:04:08;5.53;;;5.03;;
1428;SDS011;708;51.442;7.016;2022-10-17T04:06:35;8.75;;;4.00;;
1428;SDS011;708;51.442;7.016;2022-10-17T04:09:02;8.93;;;5.38;;
1428;SDS011;708;51.442;7.016;2022-10-17T04:11:32;11.27;;;6.25;;
1428;SDS011;708;51.442;7.016;2022-10-17T04:13:59;7.88;;;5.35;;
1428;SDS011;708;51.442;7.016;2022-10-17T04:16:26;7.20;;;5.18;;
1428;SDS011;708;51.442;7.016;2022-10-17T04:18:56;9.18;;;4.75;;
1428;SDS011;708;51.442;7.016;2022-10-17T04:21:24;6.85;;;5.35;;
1428;SDS011;708;51.442;7.016;2022-10-17T04:23:53;4.15;;;3.75;;
1428;SDS011;708;51.442;7.016;2022-10-17T04:26:20;6.88;;;5.20;;
1428;SDS011;708;51.442;7.016;2022-10-17T04:28:48;7.65;;;5.38;;
1428;SDS011;708;51.442;7.016;2022-10-17T04:31:16;7.70;;;5.50;;
1428;SDS011;708;51.442;7.016;2022-10-17T04:33:45;8.50;;;6.07;;
1428;SDS011;708;51.442;7.016;2022-10-17T04:36:13;5.78;;;4.95;;
1428;SDS011;708;51.442;7.016;2022-10-17T04:38:41;5.20;;;4.70;;
1428;SDS011;708;51.442;7.016;2022-10-17T04:41:10;6.18;;;5.55;;
1428;SDS011;708;51.442;7.016;2022-10-17T04:43:38;6.18;;;4.85;;
1428;SDS011;708;51.442;7.016;2022-10-17T04:46:07;6.53;;;5.20;;
1428;SDS011;708;51.442;7.016;2022-10-17T04:48:35;8.85;;;4.85;;
1428;SDS011;708;51.442;7.016;2022-10-17T04:51:03;7.45;;;5.18;;
1428;SDS011;708;51.442;7.016;2022-10-17T04:53:32;5.40;;;4.90;;
1428;SDS011;708;51.442;7.016;2022-10-17T04:56:00;8.20;;;4.18;;
1428;SDS011;708;51.442;7.016;2022-10-17T04:58:32;6.07;;;5.47;;
1428;SDS011;708;51.442;7.016;2022-10-17T05:01:03;6.18;;;5.03;;
1428;SDS011;708;51.442;7.016;2022-10-17T05:03:31;5.95;;;4.53;;
1428;SDS011;708;51.442;7.016;2022-10-17T05:06:02;5.88;;;4.90;;
1428;SDS011;708;51.442;7.016;2022-10-17T05:08:30;5.18;;;4.75;;
1428;SDS011;708;51.442;7.016;2022-10-17T05:10:57;5.68;;;5.18;;
1428;SDS011;708;51.442;7.016;2022-10-17T05:13:24;6.00;;;5.32;;
1428;SDS011;708;51.442;7.016;2022-10-17T05:15:51;7.68;;;4.85;;
1428;SDS011;708;51.442;7.016;2022-10-17T05:18:17;6.18;;;5.25;;
1428;SDS011;708;51.442;7.016;2022-10-17T05:20:46;9.93;;;5.47;;
1428;SDS011;708;51.442;7.016;2022-10-17T05:23:12;6.63;;;5.70;;
1428;SDS011;708;51.442;7.016;2022-10-17T05:25:39;6.70;;;5.13;;
1428;SDS011;708;51.442;7.016;2022-10-17T05:28:06;8.10;;;5.75;;
1428;SDS011;708;51.442;7.016;2022-10-17T05:30:33;5.70;;;4.90;;
1428;SDS011;708;51.442;7.016;2022-10-17T05:33:00;5.63;;;5.10;;
1428;SDS011;708;51.442;7.016;2022-10-17T05:35:27;4.80;;;4.40;;
1428;SDS011;708;51.442;7.016;2022-10-17T05:37:55;6.88;;;5.78;;
1428;SDS011;708;51.442;7.016;2022-10-17T05:40:24;6.28;;;5.45;;
1428;SDS011;708;51.442;7.016;2022-10-17T05:42:50;10.52;;;5.50;;
1428;SDS011;708;51.442;7.016;2022-10-17T05:45:17;6.72;;;5.28;;
1428;SDS011;708;51.442;7.016;2022-10-17T05:47:44;5.28;;;4.78;;
1428;SDS011;708;51.442;7.016;2022-10-17T05:50:11;4.85;;;4.35;;
1428;SDS011;708;51.442;7.016;2022-10-17T05:52:38;5.47;;;5.00;;
1428;SDS011;708;51.442;7.016;2022-10-17T05:55:06;6.53;;;5.22;;
1428;SDS011;708;51.442;7.016;2022-10-17T05:57:34;7.55;;;4.25;;
1428;SDS011;708;51.442;7.016;2022-10-17T06:00:00;5.85;;;5.22;;
1428;SDS011;708;51.442;7.016;2022-10-17T06:02:27;9.45;;;5.15;;
1428;SDS011;708;51.442;7.016;2022-10-17T06:04:54;6.28;;;4.90;;
1428;SDS011;708;51.442;7.016;2022-10-17T06:07:21;6.82;;;5.22;;
1428;SDS011;708;51.442;7.016;2022-10-17T06:09:47;6.53;;;5.10;;
1428;SDS011;708;51.442;7.016;2022-10-17T06:12:16;5.22;;;4.30;;
1428;SDS011;708;51.442;7.016;2022-10-17T06:14:42;5.32;;;4.80;;
1428;SDS011;708;51.442;7.016;2022-10-17T06:17:09;7.15;;;5.95;;
1428;SDS011;708;51.442;7.016;2022-10-17T06:19:36;5.57;;;4.90;;
1428;SDS011;708;51.442;7.016;2022-10-17T06:22:05;9.15;;;7.03;;
1428;SDS011;708;51.442;7.016;2022-10-17T06:24:34;8.65;;;4.82;;
1428;SDS011;708;51.442;7.016;2022-10-17T06:27:00;5.30;;;4.80;;
1428;SDS011;708;51.442;7.016;2022-10-17T06:29:29;6.03;;;4.95;;
1428;SDS011;708;51.442;7.016;2022-10-17T06:31:55;7.95;;;5.40;;
1428;SDS011;708;51.442;7.016;2022-10-17T06:34:22;6.07;;;4.88;;
1428;SDS011;708;51.442;7.016;2022-10-17T06:36:49;5.95;;;5.30;;
1428;SDS011;708;51.442;7.016;2022-10-17T06:39:15;4.40;;;3.97;;
1428;SDS011;708;51.442;7.016;2022-10-17T06:41:43;9.40;;;7.22;;
1428;SDS011;708;51.442;7.016;2022-10-17T06:44:10;11.15;;;4.60;;
1428;SDS011;708;51.442;7.016;2022-10-17T06:46:38;8.90;;;5.47;;
1428;SDS011;708;51.442;7.016;2022-10-17T06:49:06;7.30;;;4.72;;
1428;SDS011;708;51.442;7.016;2022-10-17T06:51:33;5.53;;;4.72;;
1428;SDS011;708;51.442;7.016;2022-10-17T06:54:01;5.85;;;3.88;;
1428;SDS011;708;51.442;7.016;2022-10-17T06:56:28;6.40;;;4.60;;
1428;SDS011;708;51.442;7.016;2022-10-17T06:58:55;7.97;;;4.25;;
1428;SDS011;708;51.442;7.016;2022-10-17T07:01:21;7.00;;;4.70;;
1428;SDS011;708;51.442;7.016;2022-10-17T07:03:49;5.67;;;4.20;;
1428;SDS011;708;51.442;7.016;2022-10-17T07:06:16;4.63;;;4.23;;
1428;SDS011;708;51.442;7.016;2022-10-17T07:08:43;8.00;;;4.33;;
1428;SDS011;708;51.442;7.016;2022-10-17T07:11:11;4.40;;;4.00;;
1428;SDS011;708;51.442;7.016;2022-10-17T07:13:39;4.10;;;3.73;;
1428;SDS011;708;51.442;7.016;2022-10-17T07:16:06;9.20;;;5.47;;
1428;SDS011;708;51.442;7.016;2022-10-17T07:18:33;8.80;;;4.97;;
1428;SDS011;708;51.442;7.016;2022-10-17T07:21:01;9.27;;;5.00;;
1428;SDS011;708;51.442;7.016;2022-10-17T07:23:28;6.87;;;4.23;;
1428;SDS011;708;51.442;7.016;2022-10-17T07:25:58;7.27;;;4.13;;
1428;SDS011;708;51.442;7.016;2022-10-17T07:28:26;4.73;;;4.07;;
1428;SDS011;708;51.442;7.016;2022-10-17T07:30:53;16.40;;;5.50;;
1428;SDS011;708;51.442;7.016;2022-10-17T07:33:20;4.80;;;3.83;;
1428;SDS011;708;51.442;7.016;2022-10-17T07:35:47;7.20;;;3.70;;
1428;SDS011;708;51.442;7.016;2022-10-17T07:38:17;4.00;;;3.07;;
1428;SDS011;708;51.442;7.016;2022-10-17T07:40:44;4.13;;;3.73;;
1428;SDS011;708;51.442;7.016;2022-10-17T07:43:11;5.73;;;3.40;;
1428;SDS011;708;51.442;7.016;2022-10-17T07:45:39;5.40;;;3.30;;
1428;SDS011;708;51.442;7.016;2022-10-17T07:48:06;5.90;;;3.47;;
1428;SDS011;708;51.442;7.016;2022-10-17T07:50:33;6.73;;;4.13;;
1428;SDS011;708;51.442;7.016;2022-10-17T07:52:59;5.90;;;4.07;;
1428;SDS011;708;51.442;7.016;2022-10-17T07:55:27;4.30;;;3.90;;
1428;SDS011;708;51.442;7.016;2022-10-17T07:57:54;5.07;;;3.90;;
1428;SDS011;708;51.442;7.016;2022-10-17T08:00:24;6.97;;;3.30;;
1428;SDS011;708;51.442;7.016;2022-10-17T08:02:51;5.40;;;3.47;;
1428;SDS011;708;51.442;7.016;2022-10-17T08:05:17;4.30;;;3.43;;
1428;SDS011;708;51.442;7.016;2022-10-17T08:07:44;3.67;;;3.33;;
1428;SDS011;708;51.442;7.016;2022-10-17T08:10:11;3.33;;;2.80;;
1428;SDS011;708;51.442;7.016;2022-10-17T08:12:41;6.10;;;3.10;;
1428;SDS011;708;51.442;7.016;2022-10-17T08:15:08;8.47;;;4.13;;
1428;SDS011;708;51.442;7.016;2022-10-17T08:17:36;4.53;;;3.37;;
1428;SDS011;708;51.442;7.016;2022-10-17T08:20:04;3.37;;;3.07;;
1428;SDS011;708;51.442;7.016;2022-10-17T08:22:31;5.20;;;3.37;;
1428;SDS011;708;51.442;7.016;2022-10-17T08:24:58;4.17;;;3.70;;
1428;SDS011;708;51.442;7.016;2022-10-17T08:27:25;8.30;;;3.00;;
1428;SDS011;708;51.442;7.016;2022-10-17T08:29:54;3.50;;;2.77;;
1428;SDS011;708;51.442;7.016;2022-10-17T08:32:21;3.77;;;3.37;;
1428;SDS011;708;51.442;7.016;2022-10-17T08:34:50;5.90;;;2.77;;
1428;SDS011;708;51.442;7.016;2022-10-17T08:37:17;2.97;;;2.43;;
1428;SDS011;708;51.442;7.016;2022-10-17T08:39:44;4.83;;;3.33;;
1428;SDS011;708;51.442;7.016;2022-10-17T08:42:18;4.40;;;3.13;;
1428;SDS011;708;51.442;7.016;2022-10-17T08:44:59;3.30;;;3.00;;
1428;SDS011;708;51.442;7.016;2022-10-17T08:47:37;4.03;;;3.13;;
1428;SDS011;708;51.442;7.016;2022-10-17T08:50:06;5.33;;;3.00;;
1428;SDS011;708;51.442;7.016;2022-10-17T08:52:40;5.00;;;3.53;;
1428;SDS011;708;51.442;7.016;2022-10-17T08:55:12;8.97;;;3.87;;
1428;SDS011;708;51.442;7.016;2022-10-17T08:57:41;7.27;;;4.03;;
1428;SDS011;708;51.442;7.016;2022-10-17T09:00:12;7.90;;;3.37;;
1428;SDS011;708;51.442;7.016;2022-10-17T09:02:46;4.50;;;3.57;;
1428;SDS011;708;51.442;7.016;2022-10-17T09:05:31;6.40;;;3.40;;
1428;SDS011;708;51.442;7.016;2022-10-17T09:08:19;4.27;;;3.30;;
1428;SDS011;708;51.442;7.016;2022-10-17T09:10:57;3.83;;;3.10;;
1428;SDS011;708;51.442;7.016;2022-10-17T09:13:33;3.23;;;2.93;;
1428;SDS011;708;51.442;7.016;2022-10-17T09:16:17;6.07;;;3.50;;
1428;SDS011;708;51.442;7.016;2022-10-17T09:18:55;5.60;;;3.30;;
1428;SDS011;708;51.442;7.016;2022-10-17T09:21:27;5.40;;;3.80;;
1428;SDS011;708;51.442;7.016;2022-10-17T09:24:05;5.93;;;3.90;;
1428;SDS011;708;51.442;7.016;2022-10-17T09:26:39;4.23;;;3.40;;
1428;SDS011;708;51.442;7.016;2022-10-17T09:29:09;3.00;;;2.70;;
1428;SDS011;708;51.442;7.016;2022-10-17T09:31:44;7.27;;;5.33;;
1428;SDS011;708;51.442;7.016;2022-10-17T09:34:14;4.10;;;3.30;;
1428;SDS011;708;51.442;7.016;2022-10-17T09:36:41;7.90;;;3.93;;
1428;SDS011;708;51.442;7.016;2022-10-17T09:39:11;4.47;;;3.20;;
1428;SDS011;708;51.442;7.016;2022-10-17T09:41:40;4.77;;;3.60;;
1428;SDS011;708;51.442;7.016;2022-10-17T09:44:12;4.80;;;3.70;;
1428;SDS011;708;51.442;7.016;2022-10-17T09:46:45;3.10;;;2.80;;
1428;SDS011;708;51.442;7.016;2022-10-17T09:49:28;6.07;;;3.70;;
1428;SDS011;708;51.442;7.016;2022-10-17T09:51:58;4.47;;;3.50;;
1428;SDS011;708;51.442;7.016;2022-10-17T09:54:27;5.27;;;3.10;;
1428;SDS011;708;51.442;7.016;2022-10-17T09:56:58;7.83;;;3.70;;
1428;SDS011;708;51.442;7.016;2022-10-17T09:59:30;4.33;;;2.90;;
1428;SDS011;708;51.442;7.016;2022-10-17T10:02:07;5.47;;;3.77;;
1428;SDS011;708;51.442;7.016;2022-10-17T10:04:45;3.73;;;3.40;;
1428;SDS011;708;51.442;7.016;2022-10-17T10:07:18;4.50;;;3.80;;
1428;SDS011;708;51.442;7.016;2022-10-17T10:09:45;12.93;;;4.77;;
1428;SDS011;708;51.442;7.016;2022-10-17T10:12:15;5.40;;;3.40;;
1428;SDS011;708;51.442;7.016;2022-10-17T10:14:44;4.30;;;3.50;;
1428;SDS011;708;51.442;7.016;2022-10-17T10:17:25;6.60;;;3.83;;
1428;SDS011;708;51.442;7.016;2022-10-17T10:19:59;3.73;;;3.40;;
1428;SDS011;708;51.442;7.016;2022-10-17T10:22:27;5.40;;;3.07;;
1428;SDS011;708;51.442;7.016;2022-10-17T10:25:07;5.07;;;3.80;;
1428;SDS011;708;51.442;7.016;2022-10-17T10:27:38;4.33;;;3.10;;
1428;SDS011;708;51.442;7.016;2022-10-17T10:30:06;5.23;;;4.50;;
1428;SDS011;708;51.442;7.016;2022-10-17T10:32:45;4.13;;;3.47;;
1428;SDS011;708;51.442;7.016;2022-10-17T10:35:18;5.33;;;2.87;;
1428;SDS011;708;51.442;7.016;2022-10-17T10:37:47;3.80;;;3.00;;
1428;SDS011;708;51.442;7.016;2022-10-17T10:40:16;3.40;;;3.10;;
1428;SDS011;708;51.442;7.016;2022-10-17T10:42:45;6.13;;;3.47;;
1428;SDS011;708;51.442;7.016;2022-10-17T10:45:14;5.73;;;3.40;;
1428;SDS011;708;51.442;7.016;2022-10-17T10:47:50;4.70;;;3.47;;
1428;SDS011;708;51.442;7.016;2022-10-17T10:50:24;4.00;;;3.57;;
1428;SDS011;708;51.442;7.016;2022-10-17T10:52:56;4.67;;;3.80;;
1428;SDS011;708;51.442;7.016;2022-10-17T10:55:36;5.83;;;3.70;;
1428;SDS011;708;51.442;7.016;2022-10-17T10:58:11;5.50;;;3.50;;
1428;SDS011;708;51.442;7.016;2022-10-17T11:00:49;3.87;;;3.27;;
1428;SDS011;708;51.442;7.016;2022-10-17T11:03:18;4.60;;;3.73;;
1428;SDS011;708;51.442;7.016;2022-10-17T11:05:50;5.47;;;4.40;;
1428;SDS011;708;51.442;7.016;2022-10-17T11:08:35;6.50;;;4.27;;
1428;SDS011;708;51.442;7.016;2022-10-17T11:11:27;5.00;;;3.30;;
1428;SDS011;708;51.442;7.016;2022-10-17T11:14:04;5.23;;;3.20;;
1428;SDS011;708;51.442;7.016;2022-10-17T11:16:38;5.07;;;3.87;;
1428;SDS011;708;51.442;7.016;2022-10-17T11:19:15;6.87;;;3.87;;
1428;SDS011;708;51.442;7.016;2022-10-17T11:21:47;4.37;;;2.93;;
1428;SDS011;708;51.442;7.016;2022-10-17T11:24:19;5.80;;;3.70;;
1428;SDS011;708;51.442;7.016;2022-10-17T11:26:49;5.80;;;3.67;;
1428;SDS011;708;51.442;7.016;2022-10-17T11:29:20;5.87;;;4.27;;
1428;SDS011;708;51.442;7.016;2022-10-17T11:31:52;5.43;;;3.80;;
1428;SDS011;708;51.442;7.016;2022-10-17T11:34:27;4.63;;;3.83;;
1428;SDS011;708;51.442;7.016;2022-10-17T11:36:59;4.50;;;4.10;;
1428;SDS011;708;51.442;7.016;2022-10-17T11:39:30;5.73;;;4.33;;
1428;SDS011;708;51.442;7.016;2022-10-17T11:42:05;9.00;;;5.20;;
1428;SDS011;708;51.442;7.016;2022-10-17T11:44:35;7.30;;;4.60;;
1428;SDS011;708;51.442;7.016;2022-10-17T11:47:04;7.37;;;4.10;;
1428;SDS011;708;51.442;7.016;2022-10-17T11:49:40;5.90;;;4.50;;
1428;SDS011;708;51.442;7.016;2022-10-17T11:52:16;7.97;;;4.60;;
1428;SDS011;708;51.442;7.016;2022-10-17T11:54:52;10.07;;;5.33;;
1428;SDS011;708;51.442;7.016;2022-10-17T11:57:29;5.03;;;3.43;;
1428;SDS011;708;51.442;7.016;2022-10-17T12:00:10;6.97;;;4.93;;
1428;SDS011;708;51.442;7.016;2022-10-17T12:02:49;5.87;;;4.80;;
1428;SDS011;708;51.442;7.016;2022-10-17T12:05:25;6.50;;;4.17;;
1428;SDS011;708;51.442;7.016;2022-10-17T12:08:03;6.97;;;4.60;;
1428;SDS011;708;51.442;7.016;2022-10-17T12:10:36;5.40;;;4.50;;
1428;SDS011;708;51.442;7.016;2022-10-17T12:19:33;10.93;;;5.43;;
1428;SDS011;708;51.442;7.016;2022-10-17T12:22:04;6.37;;;4.17;;
1428;SDS011;708;51.442;7.016;2022-10-17T12:24:43;7.60;;;5.10;;
1428;SDS011;708;51.442;7.016;2022-10-17T12:27:21;3.60;;;3.30;;
1428;SDS011;708;51.442;7.016;2022-10-17T12:30:04;5.87;;;5.37;;
1428;SDS011;708;51.442;7.016;2022-10-17T12:32:51;4.23;;;3.83;;
1428;SDS011;708;51.442;7.016;2022-10-17T12:35:20;5.63;;;4.93;;
1428;SDS011;708;51.442;7.016;2022-10-17T12:38:00;6.63;;;4.20;;
1428;SDS011;708;51.442;7.016;2022-10-17T12:43:32;7.20;;;4.93;;
1428;SDS011;708;51.442;7.016;2022-10-17T12:46:02;4.20;;;3.53;;
1428;SDS011;708;51.442;7.016;2022-10-17T12:54:44;6.00;;;4.80;;
1428;SDS011;708;51.442;7.016;2022-10-17T12:57:14;7.97;;;5.30;;
1428;SDS011;708;51.442;7.016;2022-10-17T12:59:46;4.30;;;3.90;;
1428;SDS011;708;51.442;7.016;2022-10-17T13:02:15;4.10;;;3.70;;
1428;SDS011;708;51.442;7.016;2022-10-17T13:04:45;6.30;;;4.50;;
1428;SDS011;708;51.442;7.016;2022-10-17T13:07:15;9.37;;;5.47;;
1428;SDS011;708;51.442;7.016;2022-10-17T13:09:46;10.03;;;4.07;;
1428;SDS011;708;51.442;7.016;2022-10-17T13:12:17;6.93;;;4.83;;
1428;SDS011;708;51.442;7.016;2022-10-17T13:14:48;8.10;;;5.37;;
1428;SDS011;708;51.442;7.016;2022-10-17T13:17:21;4.20;;;3.80;;
1428;SDS011;708;51.442;7.016;2022-10-17T13:19:49;6.83;;;4.37;;
1428;SDS011;708;51.442;7.016;2022-10-17T13:22:17;7.73;;;4.93;;
1428;SDS011;708;51.442;7.016;2022-10-17T13:24:48;5.27;;;3.80;;
1428;SDS011;708;51.442;7.016;2022-10-17T13:27:22;7.30;;;4.70;;
1428;SDS011;708;51.442;7.016;2022-10-17T13:29:52;3.97;;;3.30;;
1428;SDS011;708;51.442;7.016;2022-10-17T13:32:20;8.60;;;5.40;;
1428;SDS011;708;51.442;7.016;2022-10-17T13:37:30;6.50;;;3.90;;
1428;SDS011;708;51.442;7.016;2022-10-17T13:39:58;7.70;;;5.27;;
1428;SDS011;708;51.442;7.016;2022-10-17T13:42:26;9.37;;;5.30;;
1428;SDS011;708;51.442;7.016;2022-10-17T13:44:54;8.70;;;5.47;;
1428;SDS011;708;51.442;7.016;2022-10-17T13:47:22;7.60;;;5.90;;
1428;SDS011;708;51.442;7.016;2022-10-17T13:49:51;13.87;;;7.70;;
1428;SDS011;708;51.442;7.016;2022-10-17T13:52:18;6.67;;;5.73;;
1428;SDS011;708;51.442;7.016;2022-10-17T13:54:47;5.87;;;5.23;;
1428;SDS011;708;51.442;7.016;2022-10-17T13:57:19;6.33;;;5.30;;
1428;SDS011;708;51.442;7.016;2022-10-17T13:59:48;7.60;;;4.80;;
1428;SDS011;708;51.442;7.016;2022-10-17T14:02:18;6.23;;;4.53;;
1428;SDS011;708;51.442;7.016;2022-10-17T14:04:46;5.63;;;5.10;;
1428;SDS011;708;51.442;7.016;2022-10-17T14:07:18;9.20;;;5.57;;
1428;SDS011;708;51.442;7.016;2022-10-17T14:09:50;6.80;;;4.83;;
1428;SDS011;708;51.442;7.016;2022-10-17T14:12:18;8.87;;;5.07;;
1428;SDS011;708;51.442;7.016;2022-10-17T14:14:48;7.30;;;5.07;;
1428;SDS011;708;51.442;7.016;2022-10-17T14:17:20;5.60;;;3.90;;
1428;SDS011;708;51.442;7.016;2022-10-17T14:19:50;7.57;;;5.07;;
1428;SDS011;708;51.442;7.016;2022-10-17T14:22:24;6.23;;;5.57;;
1428;SDS011;708;51.442;7.016;2022-10-17T14:24:56;5.60;;;4.23;;
1428;SDS011;708;51.442;7.016;2022-10-17T14:27:26;8.50;;;4.37;;
1428;SDS011;708;51.442;7.016;2022-10-17T14:29:56;5.57;;;4.13;;
1428;SDS011;708;51.442;7.016;2022-10-17T14:33:22;6.47;;;4.07;;
1428;SDS011;708;51.442;7.016;2022-10-17T14:36:14;5.20;;;4.70;;
1428;SDS011;708;51.442;7.016;2022-10-17T14:38:43;9.77;;;5.60;;
1428;SDS011;708;51.442;7.016;2022-10-17T14:41:13;8.93;;;4.40;;
1428;SDS011;708;51.442;7.016;2022-10-17T14:43:44;7.43;;;4.97;;
1428;SDS011;708;51.442;7.016;2022-10-17T14:46:18;7.70;;;4.53;;
1428;SDS011;708;51.442;7.016;2022-10-17T14:48:45;7.30;;;4.50;;
1428;SDS011;708;51.442;7.016;2022-10-17T14:51:18;9.50;;;4.23;;
1428;SDS011;708;51.442;7.016;2022-10-17T14:53:57;11.70;;;4.90;;
1428;SDS011;708;51.442;7.016;2022-10-17T14:56:27;6.67;;;4.37;;
1428;SDS011;708;51.442;7.016;2022-10-17T14:59:00;7.73;;;4.73;;
1428;SDS011;708;51.442;7.016;2022-10-17T15:01:29;8.43;;;5.07;;
1428;SDS011;708;51.442;7.016;2022-10-17T15:03:57;4.43;;;3.20;;
1428;SDS011;708;51.442;7.016;2022-10-17T15:06:26;10.23;;;4.27;;
1428;SDS011;708;51.442;7.016;2022-10-17T15:08:53;7.07;;;4.70;;
1428;SDS011;708;51.442;7.016;2022-10-17T15:11:20;5.63;;;3.70;;
1428;SDS011;708;51.442;7.016;2022-10-17T15:13:46;9.37;;;4.50;;
1428;SDS011;708;51.442;7.016;2022-10-17T15:16:17;5.73;;;3.93;;
1428;SDS011;708;51.442;7.016;2022-10-17T15:18:45;4.50;;;2.40;;
1428;SDS011;708;51.442;7.016;2022-10-17T15:21:12;6.30;;;4.30;;
1428;SDS011;708;51.442;7.016;2022-10-17T15:23:40;4.17;;;3.30;;
1428;SDS011;708;51.442;7.016;2022-10-17T15:26:10;4.57;;;3.77;;
1428;SDS011;708;51.442;7.016;2022-10-17T15:28:47;11.27;;;5.30;;
1428;SDS011;708;51.442;7.016;2022-10-17T15:31:16;6.87;;;4.87;;
1428;SDS011;708;51.442;7.016;2022-10-17T15:33:44;6.43;;;4.80;;
1428;SDS011;708;51.442;7.016;2022-10-17T15:36:19;5.73;;;4.60;;
1428;SDS011;708;51.442;7.016;2022-10-17T15:38:48;4.37;;;3.97;;
1428;SDS011;708;51.442;7.016;2022-10-17T15:41:16;4.30;;;3.60;;
1428;SDS011;708;51.442;7.016;2022-10-17T15:43:43;5.80;;;3.57;;
1428;SDS011;708;51.442;7.016;2022-10-17T15:46:11;9.50;;;5.30;;
1428;SDS011;708;51.442;7.016;2022-10-17T15:48:46;5.70;;;4.10;;
1428;SDS011;708;51.442;7.016;2022-10-17T15:51:16;4.53;;;3.57;;
1428;SDS011;708;51.442;7.016;2022-10-17T15:53:43;4.90;;;4.40;;
1428;SDS011;708;51.442;7.016;2022-10-17T15:56:14;6.10;;;4.47;;
1428;SDS011;708;51.442;7.016;2022-10-17T15:58:46;8.60;;;5.40;;
1428;SDS011;708;51.442;7.016;2022-10-17T16:01:15;4.40;;;4.00;;
1428;SDS011;708;51.442;7.016;2022-10-17T16:03:47;9.63;;;5.77;;
1428;SDS011;708;51.442;7.016;2022-10-17T16:06:15;7.83;;;5.47;;
1428;SDS011;708;51.442;7.016;2022-10-17T16:08:42;10.10;;;5.43;;
1428;SDS011;708;51.442;7.016;2022-10-17T16:11:10;10.03;;;5.63;;
1428;SDS011;708;51.442;7.016;2022-10-17T16:13:42;5.70;;;4.90;;
1428;SDS011;708;51.442;7.016;2022-10-17T16:16:14;3.30;;;3.00;;